sensor_id;sensor_type;location;lat;lon;timestamp;pressure;altitude;pressure_sealevel;temperature;humidity
20394;BME280;10356;50.544;9.642;2023-05-07T00:00:38;98288.22;;;14.43;97.86
20394;BME280;10356;50.544;9.642;2023-05-07T00:03:06;98289.88;;;14.44;99.18
20394;BME280;10356;50.544;9.642;2023-05-07T00:05:33;98290.72;;;14.44;99.37
20394;BME280;10356;50.544;9.642;2023-05-07T00:07:59;98299.28;;;14.46;99.34
20394;BME280;10356;50.544;9.642;2023-05-07T00:10:26;98297.91;;;14.42;99.43
20394;BME280;10356;50.544;9.642;2023-05-07T00:12:52;98297.06;;;14.42;99.50
20394;BME280;10356;50.544;9.642;2023-05-07T00:15:19;98292.50;;;14.44;99.70
20394;BME280;10356;50.544;9.642;2023-05-07T00:17:46;98296.09;;;14.43;100.00
20394;BME280;10356;50.544;9.642;2023-05-07T00:20:14;98290.16;;;14.41;100.00
20394;BME280;10356;50.544;9.642;2023-05-07T00:22:40;98287.16;;;14.36;100.00
20394;BME280;10356;50.544;9.642;2023-05-07T00:25:07;98293.75;;;14.40;100.00
20394;BME280;10356;50.544;9.642;2023-05-07T00:27:35;98294.88;;;14.37;100.00
20394;BME280;10356;50.544;9.642;2023-05-07T00:30:02;98297.63;;;14.36;100.00
20394;BME280;10356;50.544;9.642;2023-05-07T00:32:28;98297.63;;;14.36;100.00
20394;BME280;10356;50.544;9.642;2023-05-07T00:34:55;98298.59;;;14.35;100.00
20394;BME280;10356;50.544;9.642;2023-05-07T00:37:22;98297.91;;;14.32;100.00
20394;BME280;10356;50.544;9.642;2023-05-07T00:39:49;98287.16;;;14.36;100.00
20394;BME280;10356;50.544;9.642;2023-05-07T00:42:15;98291.69;;;14.34;100.00
20394;BME280;10356;50.544;9.642;2023-05-07T00:44:42;98294.31;;;14.34;100.00
20394;BME280;10356;50.544;9.642;2023-05-07T00:47:09;98288.78;;;14.27;100.00
20394;BME280;10356;50.544;9.642;2023-05-07T00:49:38;98295.28;;;14.32;100.00
20394;BME280;10356;50.544;9.642;2023-05-07T00:52:06;98283.53;;;14.27;100.00
20394;BME280;10356;50.544;9.642;2023-05-07T00:54:34;98283.94;;;14.22;100.00
20394;BME280;10356;50.544;9.642;2023-05-07T00:57:02;98282.47;;;14.20;100.00
20394;BME280;10356;50.544;9.642;2023-05-07T00:59:30;98286.56;;;14.22;99.94
20394;BME280;10356;50.544;9.642;2023-05-07T01:01:56;98278.72;;;14.22;100.00
20394;BME280;10356;50.544;9.642;2023-05-07T01:04:23;98279.97;;;14.18;100.00
20394;BME280;10356;50.544;9.642;2023-05-07T01:06:50;98272.78;;;14.20;100.00
20394;BME280;10356;50.544;9.642;2023-05-07T01:09:19;98273.06;;;14.17;100.00
20394;BME280;10356;50.544;9.642;2023-05-07T01:11:47;98278.31;;;14.17;100.00
20394;BME280;10356;50.544;9.642;2023-05-07T01:14:16;98273.06;;;14.17;100.00
20394;BME280;10356;50.544;9.642;2023-05-07T01:16:43;98275.81;;;14.16;100.00
20394;BME280;10356;50.544;9.642;2023-05-07T01:19:11;98284.66;;;14.15;100.00
20394;BME280;10356;50.544;9.642;2023-05-07T01:21:43;98274.44;;;14.12;100.00
20394;BME280;10356;50.544;9.642;2023-05-07T01:24:12;98275.84;;;14.06;100.00
20394;BME280;10356;50.544;9.642;2023-05-07T01:26:39;98267.81;;;14.08;100.00
20394;BME280;10356;50.544;9.642;2023-05-07T01:29:06;98263.72;;;14.05;100.00
20394;BME280;10356;50.544;9.642;2023-05-07T01:31:33;98262.34;;;14.01;100.00
20394;BME280;10356;50.544;9.642;2023-05-07T01:34:01;98255.16;;;14.03;100.00
20394;BME280;10356;50.544;9.642;2023-05-07T01:36:29;98256.28;;;14.01;100.00
20394;BME280;10356;50.544;9.642;2023-05-07T01:38:56;98245.78;;;14.01;100.00
20394;BME280;10356;50.544;9.642;2023-05-07T01:41:25;98247.44;;;14.02;100.00
20394;BME280;10356;50.544;9.642;2023-05-07T01:43:52;98249.38;;;14.00;100.00
20394;BME280;10356;50.544;9.642;2023-05-07T01:46:20;98246.31;;;14.04;100.00
20394;BME280;10356;50.544;9.642;2023-05-07T01:48:47;98252.13;;;13.98;100.00
20394;BME280;10356;50.544;9.642;2023-05-07T01:51:14;98254.06;;;13.96;100.00
20394;BME280;10356;50.544;9.642;2023-05-07T01:53:40;98248.56;;;13.99;100.00
20394;BME280;10356;50.544;9.642;2023-05-07T01:56:08;98249.38;;;14.00;100.00
20394;BME280;10356;50.544;9.642;2023-05-07T01:58:36;98253.09;;;13.97;100.00
20394;BME280;10356;50.544;9.642;2023-05-07T02:01:03;98247.44;;;13.92;100.00
20394;BME280;10356;50.544;9.642;2023-05-07T02:03:29;98261.53;;;13.91;100.00
20394;BME280;10356;50.544;9.642;2023-05-07T02:05:56;98264.00;;;13.93;100.00
20394;BME280;10356;50.544;9.642;2023-05-07T02:08:22;98261.53;;;13.91;100.00
20394;BME280;10356;50.544;9.642;2023-05-07T02:10:48;98270.63;;;13.87;100.00
20394;BME280;10356;50.544;9.642;2023-05-07T02:13:16;98261.25;;;13.85;100.00
20394;BME280;10356;50.544;9.642;2023-05-07T02:15:44;98263.47;;;13.89;100.00
20394;BME280;10356;50.544;9.642;2023-05-07T02:18:15;98264.00;;;13.83;100.00
20394;BME280;10356;50.544;9.642;2023-05-07T02:20:42;98261.25;;;13.85;100.00
20394;BME280;10356;50.544;9.642;2023-05-07T02:23:08;98258.47;;;13.86;100.00
20394;BME280;10356;50.544;9.642;2023-05-07T02:25:35;98265.38;;;13.87;100.00
20394;BME280;10356;50.544;9.642;2023-05-07T02:28:01;98265.66;;;13.84;100.00
20394;BME280;10356;50.544;9.642;2023-05-07T02:30:28;98247.31;;;13.84;100.00
20394;BME280;10356;50.544;9.642;2023-05-07T02:32:56;98248.56;;;13.80;100.00
20394;BME280;10356;50.544;9.642;2023-05-07T02:35:23;98251.19;;;13.80;100.00
20394;BME280;10356;50.544;9.642;2023-05-07T02:37:50;98256.41;;;13.80;100.00
20394;BME280;10356;50.544;9.642;2023-05-07T02:40:16;98254.91;;;13.78;100.00
20394;BME280;10356;50.544;9.642;2023-05-07T02:42:43;98261.94;;;13.77;100.00
20394;BME280;10356;50.544;9.642;2023-05-07T02:45:10;98265.50;;;13.76;100.00
20394;BME280;10356;50.544;9.642;2023-05-07T02:47:36;98259.59;;;13.74;100.00
20394;BME280;10356;50.544;9.642;2023-05-07T02:50:06;98264.28;;;13.71;100.00
20394;BME280;10356;50.544;9.642;2023-05-07T02:52:32;98268.97;;;13.67;100.00
20394;BME280;10356;50.544;9.642;2023-05-07T02:54:59;98269.78;;;13.68;100.00
20394;BME280;10356;50.544;9.642;2023-05-07T02:57:25;98276.16;;;13.65;100.00
20394;BME280;10356;50.544;9.642;2023-05-07T02:59:52;98280.53;;;13.65;100.00
20394;BME280;10356;50.544;9.642;2023-05-07T03:02:18;98283.00;;;13.66;100.00
20394;BME280;10356;50.544;9.642;2023-05-07T03:04:45;98284.94;;;13.64;100.00
20394;BME280;10356;50.544;9.642;2023-05-07T03:07:13;98292.13;;;13.62;100.00
20394;BME280;10356;50.544;9.642;2023-05-07T03:09:39;98284.13;;;13.54;100.00
20394;BME280;10356;50.544;9.642;2023-05-07T03:12:06;98288.50;;;13.54;100.00
20394;BME280;10356;50.544;9.642;2023-05-07T03:14:33;98289.06;;;13.47;100.00
20394;BME280;10356;50.544;9.642;2023-05-07T03:16:59;98282.59;;;13.42;100.00
20394;BME280;10356;50.544;9.642;2023-05-07T03:19:26;98285.88;;;13.44;100.00
20394;BME280;10356;50.544;9.642;2023-05-07T03:21:52;98279.72;;;13.45;100.00
20394;BME280;10356;50.544;9.642;2023-05-07T03:24:20;98276.94;;;13.46;100.00
20394;BME280;10356;50.544;9.642;2023-05-07T03:26:47;98274.19;;;13.48;100.00
20394;BME280;10356;50.544;9.642;2023-05-07T03:29:13;98277.78;;;13.47;100.00
20394;BME280;10356;50.544;9.642;2023-05-07T03:31:40;98274.19;;;13.48;100.00
20394;BME280;10356;50.544;9.642;2023-05-07T03:34:06;98267.31;;;13.47;100.00
20394;BME280;10356;50.544;9.642;2023-05-07T03:36:33;98272.81;;;13.44;100.00
20394;BME280;10356;50.544;9.642;2023-05-07T03:38:59;98273.63;;;13.44;100.00
20394;BME280;10356;50.544;9.642;2023-05-07T03:41:27;98278.59;;;13.47;100.00
20394;BME280;10356;50.544;9.642;2023-05-07T03:43:54;98281.34;;;13.46;100.00
20394;BME280;10356;50.544;9.642;2023-05-07T03:46:21;98279.72;;;13.45;100.00
20394;BME280;10356;50.544;9.642;2023-05-07T03:48:47;98278.03;;;13.44;100.00
20394;BME280;10356;50.544;9.642;2023-05-07T03:51:14;98284.94;;;13.45;100.00
20394;BME280;10356;50.544;9.642;2023-05-07T03:53:40;98279.72;;;13.45;100.00
20394;BME280;10356;50.544;9.642;2023-05-07T03:56:07;98281.50;;;13.54;100.00
20394;BME280;10356;50.544;9.642;2023-05-07T03:58:34;98283.81;;;13.47;100.00
20394;BME280;10356;50.544;9.642;2023-05-07T04:01:01;98290.19;;;13.45;100.00
20394;BME280;10356;50.544;9.642;2023-05-07T04:03:28;98296.50;;;13.42;100.00
20394;BME280;10356;50.544;9.642;2023-05-07T04:05:55;98295.66;;;13.42;100.00
20394;BME280;10356;50.544;9.642;2023-05-07T04:08:21;98295.94;;;13.39;100.00
20394;BME280;10356;50.544;9.642;2023-05-07T04:10:48;98296.75;;;13.39;100.00
20394;BME280;10356;50.544;9.642;2023-05-07T04:13:20;98290.13;;;13.35;100.00
20394;BME280;10356;50.544;9.642;2023-05-07T04:15:48;98295.66;;;13.23;100.00
20394;BME280;10356;50.544;9.642;2023-05-07T04:18:15;98288.91;;;13.30;100.00
20394;BME280;10356;50.544;9.642;2023-05-07T04:20:41;98289.34;;;13.35;100.00
20394;BME280;10356;50.544;9.642;2023-05-07T04:23:08;98289.88;;;13.38;100.00
20394;BME280;10356;50.544;9.642;2023-05-07T04:25:34;98292.34;;;13.40;100.00
20394;BME280;10356;50.544;9.642;2023-05-07T04:28:01;98292.50;;;13.38;100.00
20394;BME280;10356;50.544;9.642;2023-05-07T04:30:27;98299.25;;;13.41;100.00
20394;BME280;10356;50.544;9.642;2023-05-07T04:32:55;98297.34;;;13.43;100.00
20394;BME280;10356;50.544;9.642;2023-05-07T04:35:22;98293.59;;;13.45;100.00
20394;BME280;10356;50.544;9.642;2023-05-07T04:37:49;98294.19;;;13.49;100.00
20394;BME280;10356;50.544;9.642;2023-05-07T04:40:16;98297.19;;;13.54;100.00
20394;BME280;10356;50.544;9.642;2023-05-07T04:42:42;98296.94;;;13.57;100.00
20394;BME280;10356;50.544;9.642;2023-05-07T04:45:09;98294.59;;;13.54;100.00
20394;BME280;10356;50.544;9.642;2023-05-07T04:47:37;98302.44;;;13.54;100.00
20394;BME280;10356;50.544;9.642;2023-05-07T04:50:06;98289.63;;;13.61;100.00
20394;BME280;10356;50.544;9.642;2023-05-07T04:52:33;98293.19;;;13.60;100.00
20394;BME280;10356;50.544;9.642;2023-05-07T04:55:00;98300.50;;;13.56;100.00
20394;BME280;10356;50.544;9.642;2023-05-07T04:57:26;98302.59;;;13.62;100.00
20394;BME280;10356;50.544;9.642;2023-05-07T04:59:53;98304.50;;;13.60;100.00
20394;BME280;10356;50.544;9.642;2023-05-07T05:02:20;98312.25;;;13.71;100.00
20394;BME280;10356;50.544;9.642;2023-05-07T05:04:46;98323.13;;;13.76;100.00
20394;BME280;10356;50.544;9.642;2023-05-07T05:07:14;98322.19;;;13.77;100.00
20394;BME280;10356;50.544;9.642;2023-05-07T05:09:40;98320.81;;;13.73;100.00
20394;BME280;10356;50.544;9.642;2023-05-07T05:12:07;98327.97;;;13.71;100.00
20394;BME280;10356;50.544;9.642;2023-05-07T05:14:33;98329.91;;;13.79;100.00
20394;BME280;10356;50.544;9.642;2023-05-07T05:17:00;98331.69;;;13.78;100.00
20394;BME280;10356;50.544;9.642;2023-05-07T05:19:26;98329.59;;;13.82;100.00
20394;BME280;10356;50.544;9.642;2023-05-07T05:21:53;98335.13;;;13.88;100.00
20394;BME280;10356;50.544;9.642;2023-05-07T05:24:20;98341.50;;;13.95;99.95
20394;BME280;10356;50.544;9.642;2023-05-07T05:26:47;98341.19;;;13.98;99.20
20394;BME280;10356;50.544;9.642;2023-05-07T05:29:14;98333.78;;;14.03;99.22
20394;BME280;10356;50.544;9.642;2023-05-07T05:31:40;98340.50;;;13.96;98.83
20394;BME280;10356;50.544;9.642;2023-05-07T05:34:07;98334.84;;;14.10;98.22
20394;BME280;10356;50.544;9.642;2023-05-07T05:36:33;98345.75;;;14.15;98.00
20394;BME280;10356;50.544;9.642;2023-05-07T05:39:00;98345.75;;;14.15;97.44
20394;BME280;10356;50.544;9.642;2023-05-07T05:41:28;98350.88;;;14.17;97.04
20394;BME280;10356;50.544;9.642;2023-05-07T05:43:54;98350.59;;;14.20;97.06
20394;BME280;10356;50.544;9.642;2023-05-07T05:46:21;98342.47;;;14.32;96.32
20394;BME280;10356;50.544;9.642;2023-05-07T05:48:47;98348.94;;;14.28;96.08
20394;BME280;10356;50.544;9.642;2023-05-07T05:51:14;98352.13;;;14.32;96.29
20394;BME280;10356;50.544;9.642;2023-05-07T05:53:40;98353.63;;;14.35;95.65
20394;BME280;10356;50.544;9.642;2023-05-07T05:56:07;98348.69;;;14.32;94.95
20394;BME280;10356;50.544;9.642;2023-05-07T05:58:35;98352.53;;;14.37;93.83
20394;BME280;10356;50.544;9.642;2023-05-07T06:01:01;98351.00;;;14.15;94.28
20394;BME280;10356;50.544;9.642;2023-05-07T06:03:28;98356.09;;;14.26;94.09
20394;BME280;10356;50.544;9.642;2023-05-07T06:05:55;98356.94;;;14.27;94.12
20394;BME280;10356;50.544;9.642;2023-05-07T06:08:21;98358.63;;;14.28;94.22
20394;BME280;10356;50.544;9.642;2023-05-07T06:10:48;98355.84;;;14.39;93.95
20394;BME280;10356;50.544;9.642;2023-05-07T06:13:14;98363.56;;;14.50;92.88
20394;BME280;10356;50.544;9.642;2023-05-07T06:15:42;98361.59;;;14.62;92.62
20394;BME280;10356;50.544;9.642;2023-05-07T06:18:09;98366.72;;;14.54;92.88
20394;BME280;10356;50.544;9.642;2023-05-07T06:20:35;98371.13;;;14.63;91.94
20394;BME280;10356;50.544;9.642;2023-05-07T06:23:01;98368.09;;;14.58;91.04
20394;BME280;10356;50.544;9.642;2023-05-07T06:25:28;98367.13;;;14.59;90.39
20394;BME280;10356;50.544;9.642;2023-05-07T06:27:54;98369.63;;;14.51;92.63
20394;BME280;10356;50.544;9.642;2023-05-07T06:30:21;98373.91;;;14.52;92.91
20394;BME280;10356;50.544;9.642;2023-05-07T06:32:49;98367.84;;;14.51;92.11
20394;BME280;10356;50.544;9.642;2023-05-07T06:35:15;98362.56;;;14.61;91.39
20394;BME280;10356;50.544;9.642;2023-05-07T06:37:42;98362.16;;;14.56;91.36
20394;BME280;10356;50.544;9.642;2023-05-07T06:40:09;98364.63;;;14.67;91.12
20394;BME280;10356;50.544;9.642;2023-05-07T06:42:36;98369.41;;;14.81;90.57
20394;BME280;10356;50.544;9.642;2023-05-07T06:45:03;98370.09;;;14.83;89.48
20394;BME280;10356;50.544;9.642;2023-05-07T06:47:30;98377.28;;;14.81;89.04
20394;BME280;10356;50.544;9.642;2023-05-07T06:49:57;98373.03;;;14.80;88.60
20394;BME280;10356;50.544;9.642;2023-05-07T06:52:24;98375.41;;;14.64;90.23
20394;BME280;10356;50.544;9.642;2023-05-07T06:54:51;98378.53;;;14.77;89.24
20394;BME280;10356;50.544;9.642;2023-05-07T06:57:17;98378.66;;;14.94;88.49
20394;BME280;10356;50.544;9.642;2023-05-07T06:59:44;98380.38;;;15.13;87.65
20394;BME280;10356;50.544;9.642;2023-05-07T07:02:10;98388.81;;;15.07;86.78
20394;BME280;10356;50.544;9.642;2023-05-07T07:04:37;98380.47;;;15.21;86.39
20394;BME280;10356;50.544;9.642;2023-05-07T07:07:05;98388.41;;;15.48;85.61
20394;BME280;10356;50.544;9.642;2023-05-07T07:09:31;98393.56;;;15.67;85.11
20394;BME280;10356;50.544;9.642;2023-05-07T07:11:58;98385.03;;;15.56;85.01
20394;BME280;10356;50.544;9.642;2023-05-07T07:14:24;98381.81;;;15.62;84.35
20394;BME280;10356;50.544;9.642;2023-05-07T07:16:50;98379.94;;;15.81;84.25
20394;BME280;10356;50.544;9.642;2023-05-07T07:19:17;98379.16;;;15.71;84.10
20394;BME280;10356;50.544;9.642;2023-05-07T07:21:45;98384.97;;;15.92;82.53
20394;BME280;10356;50.544;9.642;2023-05-07T07:24:14;98386.72;;;16.02;82.91
20394;BME280;10356;50.544;9.642;2023-05-07T07:26:44;98396.31;;;16.11;81.28
20394;BME280;10356;50.544;9.642;2023-05-07T07:29:10;98383.84;;;16.13;79.84
20394;BME280;10356;50.544;9.642;2023-05-07T07:31:37;98388.91;;;16.24;79.80
20394;BME280;10356;50.544;9.642;2023-05-07T07:34:03;98395.56;;;16.36;79.71
20394;BME280;10356;50.544;9.642;2023-05-07T07:36:30;98389.88;;;16.58;78.64
20394;BME280;10356;50.544;9.642;2023-05-07T07:38:56;98393.69;;;16.46;78.25
20394;BME280;10356;50.544;9.642;2023-05-07T07:41:24;98390.22;;;16.63;76.46
20394;BME280;10356;50.544;9.642;2023-05-07T07:43:51;98389.47;;;16.96;76.58
20394;BME280;10356;50.544;9.642;2023-05-07T07:46:17;98388.59;;;16.62;76.31
20394;BME280;10356;50.544;9.642;2023-05-07T07:48:43;98391.84;;;17.07;76.94
20394;BME280;10356;50.544;9.642;2023-05-07T07:51:10;98394.94;;;17.28;74.39
20394;BME280;10356;50.544;9.642;2023-05-07T07:53:36;98393.34;;;17.43;73.57
20394;BME280;10356;50.544;9.642;2023-05-07T07:56:03;98393.34;;;17.43;75.16
20394;BME280;10356;50.544;9.642;2023-05-07T07:58:31;98397.44;;;17.04;74.40
20394;BME280;10356;50.544;9.642;2023-05-07T08:00:58;98396.03;;;17.51;73.39
20394;BME280;10356;50.544;9.642;2023-05-07T08:03:24;98402.22;;;17.76;71.07
20394;BME280;10356;50.544;9.642;2023-05-07T08:05:51;98398.41;;;17.63;71.90
20394;BME280;10356;50.544;9.642;2023-05-07T08:08:17;98402.53;;;17.65;70.87
20394;BME280;10356;50.544;9.642;2023-05-07T08:10:44;98409.69;;;17.89;70.29
20394;BME280;10356;50.544;9.642;2023-05-07T08:13:10;98398.03;;;18.07;69.33
20394;BME280;10356;50.544;9.642;2023-05-07T08:15:38;98395.88;;;17.95;68.61
20394;BME280;10356;50.544;9.642;2023-05-07T08:18:05;98403.84;;;18.27;69.22
20394;BME280;10356;50.544;9.642;2023-05-07T08:20:31;98401.03;;;18.28;69.40
20394;BME280;10356;50.544;9.642;2023-05-07T08:22:58;98406.50;;;18.83;67.10
20394;BME280;10356;50.544;9.642;2023-05-07T08:25:25;98399.91;;;18.79;65.15
20394;BME280;10356;50.544;9.642;2023-05-07T08:27:51;98394.78;;;18.86;65.23
20394;BME280;10356;50.544;9.642;2023-05-07T08:30:18;98394.31;;;18.82;65.19
20394;BME280;10356;50.544;9.642;2023-05-07T08:32:46;98396.31;;;18.64;64.33
20394;BME280;10356;50.544;9.642;2023-05-07T08:35:12;98399.91;;;18.71;66.88
20394;BME280;10356;50.544;9.642;2023-05-07T08:37:38;98390.63;;;18.99;66.15
20394;BME280;10356;50.544;9.642;2023-05-07T08:40:07;98398.28;;;18.86;63.59
20394;BME280;10356;50.544;9.642;2023-05-07T08:42:35;98395.38;;;19.28;66.25
20394;BME280;10356;50.544;9.642;2023-05-07T08:45:04;98395.34;;;19.44;61.29
20394;BME280;10356;50.544;9.642;2023-05-07T08:47:38;98397.41;;;19.65;60.64
20394;BME280;10356;50.544;9.642;2023-05-07T08:50:07;98401.06;;;19.56;63.20
20394;BME280;10356;50.544;9.642;2023-05-07T08:52:35;98400.66;;;19.36;63.51
20394;BME280;10356;50.544;9.642;2023-05-07T08:55:02;98397.06;;;19.68;62.79
20394;BME280;10356;50.544;9.642;2023-05-07T08:57:29;98397.03;;;20.06;63.74
20394;BME280;10356;50.544;9.642;2023-05-07T08:59:55;98398.19;;;20.04;60.67
20394;BME280;10356;50.544;9.642;2023-05-07T09:02:22;98397.19;;;20.36;59.14
20394;BME280;10356;50.544;9.642;2023-05-07T09:04:48;98399.59;;;20.45;59.38
20394;BME280;10356;50.544;9.642;2023-05-07T09:07:17;98412.84;;;20.45;58.67
20394;BME280;10356;50.544;9.642;2023-05-07T09:09:44;98401.66;;;20.58;57.62
20394;BME280;10356;50.544;9.642;2023-05-07T09:12:11;98401.97;;;20.77;57.80
20394;BME280;10356;50.544;9.642;2023-05-07T09:14:37;98404.69;;;20.69;55.25
20394;BME280;10356;50.544;9.642;2023-05-07T09:17:04;98404.84;;;20.53;55.78
20394;BME280;10356;50.544;9.642;2023-05-07T09:19:31;98407.84;;;20.87;55.19
20394;BME280;10356;50.544;9.642;2023-05-07T09:22:00;98411.22;;;21.04;57.11
20394;BME280;10356;50.544;9.642;2023-05-07T09:24:29;98403.72;;;21.08;54.82
20394;BME280;10356;50.544;9.642;2023-05-07T09:27:00;98404.38;;;21.24;55.11
20394;BME280;10356;50.544;9.642;2023-05-07T09:29:27;98407.38;;;21.07;57.06
20394;BME280;10356;50.544;9.642;2023-05-07T09:31:55;98400.53;;;21.12;54.75
20394;BME280;10356;50.544;9.642;2023-05-07T09:34:22;98396.63;;;21.23;55.32
20394;BME280;10356;50.544;9.642;2023-05-07T09:36:48;98400.16;;;21.30;53.74
20394;BME280;10356;50.544;9.642;2023-05-07T09:39:16;98403.38;;;21.40;54.71
20394;BME280;10356;50.544;9.642;2023-05-07T09:41:47;98401.44;;;21.34;54.91
20394;BME280;10356;50.544;9.642;2023-05-07T09:44:17;98405.72;;;21.06;56.11
20394;BME280;10356;50.544;9.642;2023-05-07T09:46:44;98395.06;;;20.76;58.43
20394;BME280;10356;50.544;9.642;2023-05-07T09:49:13;98397.50;;;21.30;56.10
20394;BME280;10356;50.544;9.642;2023-05-07T09:51:47;98388.19;;;21.34;54.68
20394;BME280;10356;50.544;9.642;2023-05-07T09:54:14;98391.28;;;21.52;54.05
20394;BME280;10356;50.544;9.642;2023-05-07T09:56:42;98394.59;;;21.83;54.08
20394;BME280;10356;50.544;9.642;2023-05-07T09:59:12;98390.28;;;21.82;54.14
20394;BME280;10356;50.544;9.642;2023-05-07T10:01:40;98388.81;;;22.79;52.95
20394;BME280;10356;50.544;9.642;2023-05-07T10:04:07;98384.59;;;23.46;49.31
20394;BME280;10356;50.544;9.642;2023-05-07T10:06:35;98380.19;;;23.66;49.50
20394;BME280;10356;50.544;9.642;2023-05-07T10:09:03;98391.59;;;23.47;48.57
20394;BME280;10356;50.544;9.642;2023-05-07T10:11:31;98384.97;;;23.77;48.19
20394;BME280;10356;50.544;9.642;2023-05-07T10:13:58;98375.88;;;22.69;49.84
20394;BME280;10356;50.544;9.642;2023-05-07T10:16:29;98371.97;;;22.93;50.46
20394;BME280;10356;50.544;9.642;2023-05-07T10:18:58;98382.31;;;21.82;52.43
20394;BME280;10356;50.544;9.642;2023-05-07T10:21:27;98376.81;;;22.40;52.57
20394;BME280;10356;50.544;9.642;2023-05-07T10:23:58;98381.09;;;22.20;50.94
20394;BME280;10356;50.544;9.642;2023-05-07T10:26:27;98376.53;;;22.14;50.79
20394;BME280;10356;50.544;9.642;2023-05-07T10:28:59;98388.16;;;22.70;49.41
20394;BME280;10356;50.544;9.642;2023-05-07T10:32:03;98378.47;;;22.41;50.50
20394;BME280;10356;50.544;9.642;2023-05-07T10:34:36;98380.50;;;22.39;50.70
20394;BME280;10356;50.544;9.642;2023-05-07T10:37:04;98375.19;;;22.39;51.76
20394;BME280;10356;50.544;9.642;2023-05-07T10:39:31;98382.13;;;22.40;51.74
20394;BME280;10356;50.544;9.642;2023-05-07T10:42:07;98383.22;;;21.89;51.77
20394;BME280;10356;50.544;9.642;2023-05-07T10:44:34;98383.34;;;22.02;51.99
20394;BME280;10356;50.544;9.642;2023-05-07T10:47:06;98383.19;;;22.25;51.24
20394;BME280;10356;50.544;9.642;2023-05-07T10:49:35;98384.41;;;21.72;53.56
20394;BME280;10356;50.544;9.642;2023-05-07T10:52:15;98385.84;;;22.25;52.94
20394;BME280;10356;50.544;9.642;2023-05-07T10:54:42;98382.47;;;21.95;50.97
20394;BME280;10356;50.544;9.642;2023-05-07T10:57:34;98379.97;;;22.29;54.09
20394;BME280;10356;50.544;9.642;2023-05-07T11:00:02;98375.94;;;22.33;51.60
20394;BME280;10356;50.544;9.642;2023-05-07T11:03:06;98365.47;;;21.90;53.29
20394;BME280;10356;50.544;9.642;2023-05-07T11:05:33;98369.03;;;22.39;54.26
20394;BME280;10356;50.544;9.642;2023-05-07T11:08:00;98368.44;;;22.86;52.69
20394;BME280;10356;50.544;9.642;2023-05-07T11:10:49;98366.56;;;22.80;50.00
20394;BME280;10356;50.544;9.642;2023-05-07T11:13:17;98371.66;;;23.77;47.95
20394;BME280;10356;50.544;9.642;2023-05-07T11:15:45;98371.19;;;24.21;45.98
20394;BME280;10356;50.544;9.642;2023-05-07T11:18:14;98368.16;;;24.44;45.18
20394;BME280;10356;50.544;9.642;2023-05-07T11:20:52;98370.50;;;23.52;47.96
20394;BME280;10356;50.544;9.642;2023-05-07T11:23:55;98369.63;;;23.11;48.72
20394;BME280;10356;50.544;9.642;2023-05-07T11:26:24;98364.22;;;23.66;47.85
20394;BME280;10356;50.544;9.642;2023-05-07T11:28:51;98365.63;;;22.94;51.64
20394;BME280;10356;50.544;9.642;2023-05-07T11:31:21;98374.50;;;23.07;49.37
20394;BME280;10356;50.544;9.642;2023-05-07T11:33:50;98372.97;;;23.19;50.19
20394;BME280;10356;50.544;9.642;2023-05-07T11:36:17;98368.88;;;22.62;51.71
20394;BME280;10356;50.544;9.642;2023-05-07T11:38:45;98370.13;;;22.66;51.49
20394;BME280;10356;50.544;9.642;2023-05-07T11:41:12;98363.75;;;22.88;49.99
20394;BME280;10356;50.544;9.642;2023-05-07T11:43:53;98375.81;;;23.18;49.29
20394;BME280;10356;50.544;9.642;2023-05-07T11:46:20;98369.81;;;22.54;50.61
20394;BME280;10356;50.544;9.642;2023-05-07T11:48:47;98371.31;;;22.63;50.51
20394;BME280;10356;50.544;9.642;2023-05-07T11:51:18;98375.59;;;22.43;52.01
20394;BME280;10356;50.544;9.642;2023-05-07T11:53:45;98369.34;;;22.72;51.58
20394;BME280;10356;50.544;9.642;2023-05-07T11:56:13;98368.63;;;23.12;50.07
20394;BME280;10356;50.544;9.642;2023-05-07T11:58:41;98367.22;;;23.16;49.42
20394;BME280;10356;50.544;9.642;2023-05-07T12:01:08;98358.88;;;23.60;48.57
20394;BME280;10356;50.544;9.642;2023-05-07T12:03:35;98361.47;;;24.00;48.59
20394;BME280;10356;50.544;9.642;2023-05-07T12:06:02;98358.97;;;23.04;49.86
20394;BME280;10356;50.544;9.642;2023-05-07T12:08:36;98356.97;;;24.01;48.67
20394;BME280;10356;50.544;9.642;2023-05-07T12:11:02;98350.94;;;24.53;47.75
20394;BME280;10356;50.544;9.642;2023-05-07T12:13:29;98350.56;;;24.88;45.96
20394;BME280;10356;50.544;9.642;2023-05-07T12:15:56;98352.53;;;25.19;46.75
20394;BME280;10356;50.544;9.642;2023-05-07T12:18:23;98343.59;;;24.87;44.69
20394;BME280;10356;50.544;9.642;2023-05-07T12:20:50;98348.78;;;24.02;49.34
20394;BME280;10356;50.544;9.642;2023-05-07T12:23:17;98350.63;;;24.02;48.60
20394;BME280;10356;50.544;9.642;2023-05-07T12:25:45;98346.56;;;23.52;49.32
20394;BME280;10356;50.544;9.642;2023-05-07T12:28:13;98341.22;;;23.99;49.44
20394;BME280;10356;50.544;9.642;2023-05-07T12:30:40;98337.31;;;23.95;47.24
20394;BME280;10356;50.544;9.642;2023-05-07T12:33:08;98338.34;;;23.13;50.77
20394;BME280;10356;50.544;9.642;2023-05-07T12:35:37;98338.22;;;22.93;51.68
20394;BME280;10356;50.544;9.642;2023-05-07T12:38:07;98337.03;;;23.30;49.96
20394;BME280;10356;50.544;9.642;2023-05-07T12:40:38;98344.69;;;23.12;50.24
20394;BME280;10356;50.544;9.642;2023-05-07T12:43:07;98336.19;;;23.29;50.36
20394;BME280;10356;50.544;9.642;2023-05-07T12:45:37;98331.09;;;23.28;52.18
20394;BME280;10356;50.544;9.642;2023-05-07T12:48:04;98337.66;;;22.98;51.08
20394;BME280;10356;50.544;9.642;2023-05-07T12:50:31;98332.00;;;23.42;50.18
20394;BME280;10356;50.544;9.642;2023-05-07T12:52:59;98337.72;;;23.39;50.37
20394;BME280;10356;50.544;9.642;2023-05-07T12:55:25;98335.97;;;22.63;52.19
20394;BME280;10356;50.544;9.642;2023-05-07T12:57:52;98335.44;;;22.74;52.48